sensor_id;sensor_type;location;lat;lon;timestamp;temperature;humidity
8798;DHT22;4435;50.898;4.734;2022-07-29T00:00:01;19.50;99.90
8798;DHT22;4435;50.898;4.734;2022-07-29T00:02:27;19.50;99.90
8798;DHT22;4435;50.898;4.734;2022-07-29T00:04:53;19.50;99.90
8798;DHT22;4435;50.898;4.734;2022-07-29T00:07:19;19.50;99.90
8798;DHT22;4435;50.898;4.734;2022-07-29T00:09:45;19.50;99.90
8798;DHT22;4435;50.898;4.734;2022-07-29T00:12:11;19.40;99.90
8798;DHT22;4435;50.898;4.734;2022-07-29T00:14:37;19.40;99.90
8798;DHT22;4435;50.898;4.734;2022-07-29T00:17:02;19.40;99.90
8798;DHT22;4435;50.898;4.734;2022-07-29T00:19:28;19.40;99.90
8798;DHT22;4435;50.898;4.734;2022-07-29T00:21:54;19.40;99.90
8798;DHT22;4435;50.898;4.734;2022-07-29T00:24:19;19.40;99.90
8798;DHT22;4435;50.898;4.734;2022-07-29T00:26:45;19.40;99.90
8798;DHT22;4435;50.898;4.734;2022-07-29T00:29:11;19.40;99.90
8798;DHT22;4435;50.898;4.734;2022-07-29T00:31:36;19.30;99.90
8798;DHT22;4435;50.898;4.734;2022-07-29T00:34:02;19.30;99.90
8798;DHT22;4435;50.898;4.734;2022-07-29T00:36:28;19.30;99.90
8798;DHT22;4435;50.898;4.734;2022-07-29T00:38:54;19.30;99.90
8798;DHT22;4435;50.898;4.734;2022-07-29T00:41:20;19.30;99.90
8798;DHT22;4435;50.898;4.734;2022-07-29T00:43:46;19.30;99.90
8798;DHT22;4435;50.898;4.734;2022-07-29T00:46:12;19.20;99.90
8798;DHT22;4435;50.898;4.734;2022-07-29T00:48:38;19.20;99.90
8798;DHT22;4435;50.898;4.734;2022-07-29T00:51:05;19.20;99.90
8798;DHT22;4435;50.898;4.734;2022-07-29T00:53:31;19.20;99.90
8798;DHT22;4435;50.898;4.734;2022-07-29T00:55:58;19.10;99.90
8798;DHT22;4435;50.898;4.734;2022-07-29T00:58:24;19.10;99.90
8798;DHT22;4435;50.898;4.734;2022-07-29T01:00:51;19.00;99.90
8798;DHT22;4435;50.898;4.734;2022-07-29T01:03:18;19.00;99.90
8798;DHT22;4435;50.898;4.734;2022-07-29T01:05:45;18.90;99.90
8798;DHT22;4435;50.898;4.734;2022-07-29T01:08:12;18.90;99.90
8798;DHT22;4435;50.898;4.734;2022-07-29T01:10:40;18.90;99.90
8798;DHT22;4435;50.898;4.734;2022-07-29T01:13:06;18.90;99.90
8798;DHT22;4435;50.898;4.734;2022-07-29T01:15:37;18.90;99.90
8798;DHT22;4435;50.898;4.734;2022-07-29T01:18:18;18.90;99.90
8798;DHT22;4435;50.898;4.734;2022-07-29T01:24:54;18.80;99.90
8798;DHT22;4435;50.898;4.734;2022-07-29T01:29:42;18.80;99.90
8798;DHT22;4435;50.898;4.734;2022-07-29T01:32:12;18.70;99.90
8798;DHT22;4435;50.898;4.734;2022-07-29T01:35:04;18.70;99.90
8798;DHT22;4435;50.898;4.734;2022-07-29T01:37:52;18.70;99.90
8798;DHT22;4435;50.898;4.734;2022-07-29T01:40:40;18.70;99.90
8798;DHT22;4435;50.898;4.734;2022-07-29T01:43:11;18.60;99.90
8798;DHT22;4435;50.898;4.734;2022-07-29T01:45:48;18.60;99.90
8798;DHT22;4435;50.898;4.734;2022-07-29T01:48:22;18.60;99.90
8798;DHT22;4435;50.898;4.734;2022-07-29T01:50:50;18.60;99.90
8798;DHT22;4435;50.898;4.734;2022-07-29T01:53:45;18.50;99.90
8798;DHT22;4435;50.898;4.734;2022-07-29T01:56:12;18.30;99.90
8798;DHT22;4435;50.898;4.734;2022-07-29T01:58:40;18.30;99.90
8798;DHT22;4435;50.898;4.734;2022-07-29T02:01:09;18.20;99.90
8798;DHT22;4435;50.898;4.734;2022-07-29T02:03:36;18.20;99.90
8798;DHT22;4435;50.898;4.734;2022-07-29T02:06:04;18.10;99.90
8798;DHT22;4435;50.898;4.734;2022-07-29T02:08:33;18.10;99.90
8798;DHT22;4435;50.898;4.734;2022-07-29T02:11:00;18.10;99.90
8798;DHT22;4435;50.898;4.734;2022-07-29T02:13:28;18.10;99.90
8798;DHT22;4435;50.898;4.734;2022-07-29T02:15:55;18.10;99.90
8798;DHT22;4435;50.898;4.734;2022-07-29T02:18:23;18.10;99.90
8798;DHT22;4435;50.898;4.734;2022-07-29T02:20:54;18.20;99.90
8798;DHT22;4435;50.898;4.734;2022-07-29T02:23:22;18.20;99.90
8798;DHT22;4435;50.898;4.734;2022-07-29T02:25:51;18.10;99.90
8798;DHT22;4435;50.898;4.734;2022-07-29T02:28:19;18.10;99.90
8798;DHT22;4435;50.898;4.734;2022-07-29T02:30:45;18.10;99.90
8798;DHT22;4435;50.898;4.734;2022-07-29T02:33:13;18.00;99.90
8798;DHT22;4435;50.898;4.734;2022-07-29T02:35:41;18.00;99.90
8798;DHT22;4435;50.898;4.734;2022-07-29T02:38:09;18.00;99.90
8798;DHT22;4435;50.898;4.734;2022-07-29T02:40:56;18.00;99.90
8798;DHT22;4435;50.898;4.734;2022-07-29T02:43:24;18.00;99.90
8798;DHT22;4435;50.898;4.734;2022-07-29T02:45:53;18.00;99.90
8798;DHT22;4435;50.898;4.734;2022-07-29T02:48:25;18.00;99.90
8798;DHT22;4435;50.898;4.734;2022-07-29T02:51:01;17.90;99.90
8798;DHT22;4435;50.898;4.734;2022-07-29T02:53:33;17.80;99.90
8798;DHT22;4435;50.898;4.734;2022-07-29T02:56:04;17.80;99.90
8798;DHT22;4435;50.898;4.734;2022-07-29T02:58:39;17.70;99.90
8798;DHT22;4435;50.898;4.734;2022-07-29T03:01:14;17.60;99.90
8798;DHT22;4435;50.898;4.734;2022-07-29T03:03:45;17.50;99.90
8798;DHT22;4435;50.898;4.734;2022-07-29T03:06:13;17.60;99.90
8798;DHT22;4435;50.898;4.734;2022-07-29T03:08:40;17.60;99.90
8798;DHT22;4435;50.898;4.734;2022-07-29T03:11:08;17.60;99.90
8798;DHT22;4435;50.898;4.734;2022-07-29T03:13:35;17.60;99.90
8798;DHT22;4435;50.898;4.734;2022-07-29T03:16:01;17.60;99.90
8798;DHT22;4435;50.898;4.734;2022-07-29T03:18:27;17.60;99.90
8798;DHT22;4435;50.898;4.734;2022-07-29T03:20:53;17.60;99.90
8798;DHT22;4435;50.898;4.734;2022-07-29T03:23:20;17.60;99.90
8798;DHT22;4435;50.898;4.734;2022-07-29T03:25:46;17.60;99.90
8798;DHT22;4435;50.898;4.734;2022-07-29T03:28:12;17.50;99.90
8798;DHT22;4435;50.898;4.734;2022-07-29T03:30:38;17.50;99.90
8798;DHT22;4435;50.898;4.734;2022-07-29T03:33:04;17.50;99.90
8798;DHT22;4435;50.898;4.734;2022-07-29T03:35:29;17.50;99.90
8798;DHT22;4435;50.898;4.734;2022-07-29T03:37:57;17.40;99.90
8798;DHT22;4435;50.898;4.734;2022-07-29T03:40:30;17.40;99.90
8798;DHT22;4435;50.898;4.734;2022-07-29T03:42:57;17.40;99.90
8798;DHT22;4435;50.898;4.734;2022-07-29T03:45:25;17.40;99.90
8798;DHT22;4435;50.898;4.734;2022-07-29T03:47:57;17.40;99.90
8798;DHT22;4435;50.898;4.734;2022-07-29T03:50:24;17.40;99.90
8798;DHT22;4435;50.898;4.734;2022-07-29T03:52:50;17.30;99.90
8798;DHT22;4435;50.898;4.734;2022-07-29T03:55:16;17.30;99.90
8798;DHT22;4435;50.898;4.734;2022-07-29T03:57:44;17.30;99.90
8798;DHT22;4435;50.898;4.734;2022-07-29T04:00:10;17.20;99.90
8798;DHT22;4435;50.898;4.734;2022-07-29T04:02:38;17.20;99.90
8798;DHT22;4435;50.898;4.734;2022-07-29T04:05:05;17.10;99.90
8798;DHT22;4435;50.898;4.734;2022-07-29T04:07:36;17.00;99.90
8798;DHT22;4435;50.898;4.734;2022-07-29T04:10:02;16.90;99.90
8798;DHT22;4435;50.898;4.734;2022-07-29T04:12:28;16.90;99.90
8798;DHT22;4435;50.898;4.734;2022-07-29T04:14:54;16.80;99.90
8798;DHT22;4435;50.898;4.734;2022-07-29T04:17:19;16.70;99.90
8798;DHT22;4435;50.898;4.734;2022-07-29T04:19:45;16.60;99.90
8798;DHT22;4435;50.898;4.734;2022-07-29T04:22:11;16.60;99.90
8798;DHT22;4435;50.898;4.734;2022-07-29T04:24:36;16.70;99.90
8798;DHT22;4435;50.898;4.734;2022-07-29T04:27:02;16.70;99.90
8798;DHT22;4435;50.898;4.734;2022-07-29T04:29:28;16.70;99.90
8798;DHT22;4435;50.898;4.734;2022-07-29T04:31:53;16.70;99.90
8798;DHT22;4435;50.898;4.734;2022-07-29T04:34:19;16.70;99.90
8798;DHT22;4435;50.898;4.734;2022-07-29T04:36:45;16.70;99.90
8798;DHT22;4435;50.898;4.734;2022-07-29T04:39:11;16.60;99.90
8798;DHT22;4435;50.898;4.734;2022-07-29T04:41:36;16.50;99.90
8798;DHT22;4435;50.898;4.734;2022-07-29T04:44:02;16.50;99.90
8798;DHT22;4435;50.898;4.734;2022-07-29T04:46:31;16.60;99.90
8798;DHT22;4435;50.898;4.734;2022-07-29T04:48:56;16.60;99.90
8798;DHT22;4435;50.898;4.734;2022-07-29T04:51:22;16.50;99.90
8798;DHT22;4435;50.898;4.734;2022-07-29T04:53:48;16.50;99.90
8798;DHT22;4435;50.898;4.734;2022-07-29T04:56:14;16.40;99.90
8798;DHT22;4435;50.898;4.734;2022-07-29T04:58:39;16.30;99.90
8798;DHT22;4435;50.898;4.734;2022-07-29T05:01:05;16.30;99.90
8798;DHT22;4435;50.898;4.734;2022-07-29T05:03:31;16.30;99.90
8798;DHT22;4435;50.898;4.734;2022-07-29T05:05:56;16.20;99.90
8798;DHT22;4435;50.898;4.734;2022-07-29T05:08:22;16.20;99.90
8798;DHT22;4435;50.898;4.734;2022-07-29T05:10:48;16.30;99.90
8798;DHT22;4435;50.898;4.734;2022-07-29T05:13:13;16.30;99.90
8798;DHT22;4435;50.898;4.734;2022-07-29T05:15:39;16.40;99.90
8798;DHT22;4435;50.898;4.734;2022-07-29T05:18:05;16.30;99.90
8798;DHT22;4435;50.898;4.734;2022-07-29T05:20:31;16.40;99.90
8798;DHT22;4435;50.898;4.734;2022-07-29T05:22:59;16.40;99.90
8798;DHT22;4435;50.898;4.734;2022-07-29T05:25:25;16.30;99.90
8798;DHT22;4435;50.898;4.734;2022-07-29T05:27:52;16.40;99.90
8798;DHT22;4435;50.898;4.734;2022-07-29T05:30:19;16.40;99.90
8798;DHT22;4435;50.898;4.734;2022-07-29T05:32:45;16.40;99.90
8798;DHT22;4435;50.898;4.734;2022-07-29T05:35:12;16.50;99.90
8798;DHT22;4435;50.898;4.734;2022-07-29T05:37:38;16.60;99.90
8798;DHT22;4435;50.898;4.734;2022-07-29T05:40:05;16.60;99.90
8798;DHT22;4435;50.898;4.734;2022-07-29T05:42:31;16.70;99.90
8798;DHT22;4435;50.898;4.734;2022-07-29T05:44:56;16.80;99.90
8798;DHT22;4435;50.898;4.734;2022-07-29T05:47:23;16.80;99.90
8798;DHT22;4435;50.898;4.734;2022-07-29T05:49:49;16.80;99.90
8798;DHT22;4435;50.898;4.734;2022-07-29T05:52:16;16.90;99.90
8798;DHT22;4435;50.898;4.734;2022-07-29T05:54:41;17.00;99.90
8798;DHT22;4435;50.898;4.734;2022-07-29T05:57:07;17.00;99.90
8798;DHT22;4435;50.898;4.734;2022-07-29T05:59:36;17.00;99.90
8798;DHT22;4435;50.898;4.734;2022-07-29T06:02:03;17.00;99.90
8798;DHT22;4435;50.898;4.734;2022-07-29T06:04:31;17.10;99.90
8798;DHT22;4435;50.898;4.734;2022-07-29T06:06:57;17.10;99.90
8798;DHT22;4435;50.898;4.734;2022-07-29T06:09:22;17.10;99.90
8798;DHT22;4435;50.898;4.734;2022-07-29T06:11:48;17.20;99.90
8798;DHT22;4435;50.898;4.734;2022-07-29T06:14:14;17.20;99.90
8798;DHT22;4435;50.898;4.734;2022-07-29T06:16:40;17.20;99.90
8798;DHT22;4435;50.898;4.734;2022-07-29T06:19:06;17.30;99.90
8798;DHT22;4435;50.898;4.734;2022-07-29T06:21:31;17.30;99.90
8798;DHT22;4435;50.898;4.734;2022-07-29T06:23:57;17.30;99.90
8798;DHT22;4435;50.898;4.734;2022-07-29T06:26:23;17.40;99.90
8798;DHT22;4435;50.898;4.734;2022-07-29T06:28:49;17.40;99.90
8798;DHT22;4435;50.898;4.734;2022-07-29T06:31:14;17.40;99.90
8798;DHT22;4435;50.898;4.734;2022-07-29T06:33:40;17.40;99.90
8798;DHT22;4435;50.898;4.734;2022-07-29T06:36:06;17.50;99.90
8798;DHT22;4435;50.898;4.734;2022-07-29T06:38:33;17.50;99.90
8798;DHT22;4435;50.898;4.734;2022-07-29T06:40:59;17.60;99.90
8798;DHT22;4435;50.898;4.734;2022-07-29T06:43:30;17.60;99.90
8798;DHT22;4435;50.898;4.734;2022-07-29T06:45:59;17.60;99.90
8798;DHT22;4435;50.898;4.734;2022-07-29T06:48:25;17.60;99.90
8798;DHT22;4435;50.898;4.734;2022-07-29T06:50:50;17.70;99.90
8798;DHT22;4435;50.898;4.734;2022-07-29T06:53:16;17.70;99.90
8798;DHT22;4435;50.898;4.734;2022-07-29T06:55:42;17.70;99.90
8798;DHT22;4435;50.898;4.734;2022-07-29T06:58:08;17.80;99.90
8798;DHT22;4435;50.898;4.734;2022-07-29T07:00:35;17.80;99.90
8798;DHT22;4435;50.898;4.734;2022-07-29T07:03:00;17.80;99.90
8798;DHT22;4435;50.898;4.734;2022-07-29T07:05:26;17.90;99.90
8798;DHT22;4435;50.898;4.734;2022-07-29T07:07:52;17.90;99.90
8798;DHT22;4435;50.898;4.734;2022-07-29T07:10:17;17.90;99.90
8798;DHT22;4435;50.898;4.734;2022-07-29T07:12:43;17.90;99.90
8798;DHT22;4435;50.898;4.734;2022-07-29T07:15:09;18.00;99.90
8798;DHT22;4435;50.898;4.734;2022-07-29T07:17:35;18.00;99.90
8798;DHT22;4435;50.898;4.734;2022-07-29T07:20:01;18.00;99.90
8798;DHT22;4435;50.898;4.734;2022-07-29T07:22:26;18.10;99.90
8798;DHT22;4435;50.898;4.734;2022-07-29T07:24:52;18.10;99.90
8798;DHT22;4435;50.898;4.734;2022-07-29T07:27:18;18.10;99.90
8798;DHT22;4435;50.898;4.734;2022-07-29T07:29:43;18.20;99.90
8798;DHT22;4435;50.898;4.734;2022-07-29T07:32:09;18.20;99.90
8798;DHT22;4435;50.898;4.734;2022-07-29T07:34:35;18.30;99.90
8798;DHT22;4435;50.898;4.734;2022-07-29T07:37:00;18.40;99.90
8798;DHT22;4435;50.898;4.734;2022-07-29T07:39:26;18.40;99.90
8798;DHT22;4435;50.898;4.734;2022-07-29T07:41:52;18.50;99.90
8798;DHT22;4435;50.898;4.734;2022-07-29T07:44:18;18.50;99.90
8798;DHT22;4435;50.898;4.734;2022-07-29T07:46:43;18.50;99.90
8798;DHT22;4435;50.898;4.734;2022-07-29T07:49:10;18.50;99.90
8798;DHT22;4435;50.898;4.734;2022-07-29T07:51:36;18.60;99.90
8798;DHT22;4435;50.898;4.734;2022-07-29T07:54:02;18.60;99.90
8798;DHT22;4435;50.898;4.734;2022-07-29T07:56:27;18.60;99.90
8798;DHT22;4435;50.898;4.734;2022-07-29T07:58:53;18.70;99.90
8798;DHT22;4435;50.898;4.734;2022-07-29T08:01:19;18.70;99.90
8798;DHT22;4435;50.898;4.734;2022-07-29T08:03:48;18.70;99.90
8798;DHT22;4435;50.898;4.734;2022-07-29T08:06:14;18.80;99.90
8798;DHT22;4435;50.898;4.734;2022-07-29T08:08:40;18.80;99.90
8798;DHT22;4435;50.898;4.734;2022-07-29T08:11:06;18.80;99.90
8798;DHT22;4435;50.898;4.734;2022-07-29T08:13:32;18.90;99.90
8798;DHT22;4435;50.898;4.734;2022-07-29T08:15:58;18.90;99.90
8798;DHT22;4435;50.898;4.734;2022-07-29T08:18:36;18.90;99.90
8798;DHT22;4435;50.898;4.734;2022-07-29T08:21:02;19.00;99.90
8798;DHT22;4435;50.898;4.734;2022-07-29T08:23:27;19.10;99.90
8798;DHT22;4435;50.898;4.734;2022-07-29T08:26:01;19.10;99.90
8798;DHT22;4435;50.898;4.734;2022-07-29T08:28:26;19.20;99.90
8798;DHT22;4435;50.898;4.734;2022-07-29T08:30:52;19.30;99.90
8798;DHT22;4435;50.898;4.734;2022-07-29T08:33:18;19.30;99.90
8798;DHT22;4435;50.898;4.734;2022-07-29T08:35:43;19.40;99.90
8798;DHT22;4435;50.898;4.734;2022-07-29T08:38:09;19.40;99.90
8798;DHT22;4435;50.898;4.734;2022-07-29T08:40:35;19.40;99.90
8798;DHT22;4435;50.898;4.734;2022-07-29T08:43:06;19.50;99.90
8798;DHT22;4435;50.898;4.734;2022-07-29T08:45:44;19.60;99.90
8798;DHT22;4435;50.898;4.734;2022-07-29T08:48:15;19.60;99.90
8798;DHT22;4435;50.898;4.734;2022-07-29T08:50:42;19.70;99.90
8798;DHT22;4435;50.898;4.734;2022-07-29T08:53:16;19.70;99.90
8798;DHT22;4435;50.898;4.734;2022-07-29T08:55:51;19.80;99.90
8798;DHT22;4435;50.898;4.734;2022-07-29T08:58:17;19.90;99.90
8798;DHT22;4435;50.898;4.734;2022-07-29T09:00:46;19.90;99.90
8798;DHT22;4435;50.898;4.734;2022-07-29T09:03:18;20.00;99.90
8798;DHT22;4435;50.898;4.734;2022-07-29T09:05:48;20.00;99.90
8798;DHT22;4435;50.898;4.734;2022-07-29T09:08:15;20.00;99.90
8798;DHT22;4435;50.898;4.734;2022-07-29T09:10:42;20.10;99.90
8798;DHT22;4435;50.898;4.734;2022-07-29T09:13:08;20.10;99.90
8798;DHT22;4435;50.898;4.734;2022-07-29T09:15:34;20.10;99.90
8798;DHT22;4435;50.898;4.734;2022-07-29T09:18:00;20.20;99.90
8798;DHT22;4435;50.898;4.734;2022-07-29T09:20:26;20.30;99.90
8798;DHT22;4435;50.898;4.734;2022-07-29T09:23:12;20.40;99.90
8798;DHT22;4435;50.898;4.734;2022-07-29T09:25:41;20.50;99.90
8798;DHT22;4435;50.898;4.734;2022-07-29T09:28:08;20.50;99.90
8798;DHT22;4435;50.898;4.734;2022-07-29T09:30:35;20.50;99.90
8798;DHT22;4435;50.898;4.734;2022-07-29T09:33:02;20.60;99.90
8798;DHT22;4435;50.898;4.734;2022-07-29T09:35:29;20.60;99.90
8798;DHT22;4435;50.898;4.734;2022-07-29T09:37:56;20.60;99.90
8798;DHT22;4435;50.898;4.734;2022-07-29T09:40:25;20.70;99.90
8798;DHT22;4435;50.898;4.734;2022-07-29T09:42:51;20.80;99.90
8798;DHT22;4435;50.898;4.734;2022-07-29T09:45:32;20.80;99.90
8798;DHT22;4435;50.898;4.734;2022-07-29T09:47:59;20.90;99.90
8798;DHT22;4435;50.898;4.734;2022-07-29T09:50:42;21.00;99.90
8798;DHT22;4435;50.898;4.734;2022-07-29T09:53:09;21.00;99.90
8798;DHT22;4435;50.898;4.734;2022-07-29T09:55:51;21.10;99.90
8798;DHT22;4435;50.898;4.734;2022-07-29T09:58:18;21.20;99.90
8798;DHT22;4435;50.898;4.734;2022-07-29T10:00:45;21.30;99.90
8798;DHT22;4435;50.898;4.734;2022-07-29T10:03:12;21.30;99.90
8798;DHT22;4435;50.898;4.734;2022-07-29T10:05:38;21.40;99.90
8798;DHT22;4435;50.898;4.734;2022-07-29T10:08:05;21.40;99.90
8798;DHT22;4435;50.898;4.734;2022-07-29T10:10:34;21.40;99.90
8798;DHT22;4435;50.898;4.734;2022-07-29T10:13:12;21.40;99.90
8798;DHT22;4435;50.898;4.734;2022-07-29T10:15:41;21.50;99.90
8798;DHT22;4435;50.898;4.734;2022-07-29T10:18:10;21.50;99.90
8798;DHT22;4435;50.898;4.734;2022-07-29T10:20:37;21.60;99.90
8798;DHT22;4435;50.898;4.734;2022-07-29T10:23:04;21.70;99.90
8798;DHT22;4435;50.898;4.734;2022-07-29T10:25:30;21.80;99.90
8798;DHT22;4435;50.898;4.734;2022-07-29T10:27:56;21.80;99.90
8798;DHT22;4435;50.898;4.734;2022-07-29T10:30:23;21.80;99.90
8798;DHT22;4435;50.898;4.734;2022-07-29T10:38:41;22.00;99.90
8798;DHT22;4435;50.898;4.734;2022-07-29T10:44:22;22.20;99.90
8798;DHT22;4435;50.898;4.734;2022-07-29T10:46:49;22.20;99.90
8798;DHT22;4435;50.898;4.734;2022-07-29T10:49:26;22.10;99.90
8798;DHT22;4435;50.898;4.734;2022-07-29T10:52:05;22.10;99.90
8798;DHT22;4435;50.898;4.734;2022-07-29T10:54:39;22.10;99.90
8798;DHT22;4435;50.898;4.734;2022-07-29T11:05:04;22.30;99.90
8798;DHT22;4435;50.898;4.734;2022-07-29T11:07:32;22.30;99.90
8798;DHT22;4435;50.898;4.734;2022-07-29T11:10:29;22.40;99.90
8798;DHT22;4435;50.898;4.734;2022-07-29T11:12:54;22.50;99.90
8798;DHT22;4435;50.898;4.734;2022-07-29T11:15:21;22.60;99.90
8798;DHT22;4435;50.898;4.734;2022-07-29T11:23:27;22.70;99.90
8798;DHT22;4435;50.898;4.734;2022-07-29T11:31:41;22.70;99.90
8798;DHT22;4435;50.898;4.734;2022-07-29T11:39:37;22.60;99.90
8798;DHT22;4435;50.898;4.734;2022-07-29T11:47:28;22.90;99.90
8798;DHT22;4435;50.898;4.734;2022-07-29T11:49:55;22.90;99.90
8798;DHT22;4435;50.898;4.734;2022-07-29T11:52:23;22.90;99.90
8798;DHT22;4435;50.898;4.734;2022-07-29T11:54:50;23.00;99.90
8798;DHT22;4435;50.898;4.734;2022-07-29T11:57:19;23.00;99.90
8798;DHT22;4435;50.898;4.734;2022-07-29T11:59:47;23.00;99.90
8798;DHT22;4435;50.898;4.734;2022-07-29T12:02:14;23.10;99.90
8798;DHT22;4435;50.898;4.734;2022-07-29T12:07:16;23.20;99.90
8798;DHT22;4435;50.898;4.734;2022-07-29T12:09:52;23.20;99.90
8798;DHT22;4435;50.898;4.734;2022-07-29T12:12:19;23.10;99.90
8798;DHT22;4435;50.898;4.734;2022-07-29T12:14:45;23.10;99.90
8798;DHT22;4435;50.898;4.734;2022-07-29T12:17:28;23.20;99.90
8798;DHT22;4435;50.898;4.734;2022-07-29T12:19:55;23.20;99.90
8798;DHT22;4435;50.898;4.734;2022-07-29T12:22:40;23.20;99.90
8798;DHT22;4435;50.898;4.734;2022-07-29T12:25:09;23.20;99.90
8798;DHT22;4435;50.898;4.734;2022-07-29T12:27:36;23.20;99.90
8798;DHT22;4435;50.898;4.734;2022-07-29T12:30:05;23.30;99.90
8798;DHT22;4435;50.898;4.734;2022-07-29T12:32:33;23.30;99.90
8798;DHT22;4435;50.898;4.734;2022-07-29T12:34:59;23.20;99.90
8798;DHT22;4435;50.898;4.734;2022-07-29T12:37:25;23.30;99.90
8798;DHT22;4435;50.898;4.734;2022-07-29T12:39:51;23.30;99.90
8798;DHT22;4435;50.898;4.734;2022-07-29T12:42:17;23.30;99.90
8798;DHT22;4435;50.898;4.734;2022-07-29T12:44:50;23.30;99.90
8798;DHT22;4435;50.898;4.734;2022-07-29T12:47:17;23.40;99.90
8798;DHT22;4435;50.898;4.734;2022-07-29T12:49:44;23.50;99.90
8798;DHT22;4435;50.898;4.734;2022-07-29T12:52:30;23.60;99.90
8798;DHT22;4435;50.898;4.734;2022-07-29T12:54:56;23.70;99.90
8798;DHT22;4435;50.898;4.734;2022-07-29T12:57:21;23.70;99.90
8798;DHT22;4435;50.898;4.734;2022-07-29T13:00:06;23.70;99.90
8798;DHT22;4435;50.898;4.734;2022-07-29T13:02:34;23.70;99.90
8798;DHT22;4435;50.898;4.734;2022-07-29T13:05:01;23.80;99.90
8798;DHT22;4435;50.898;4.734;2022-07-29T13:07:31;23.80;99.90
8798;DHT22;4435;50.898;4.734;2022-07-29T13:10:20;23.80;99.90
8798;DHT22;4435;50.898;4.734;2022-07-29T13:13:09;23.70;99.90
8798;DHT22;4435;50.898;4.734;2022-07-29T13:15:37;23.60;99.90
8798;DHT22;4435;50.898;4.734;2022-07-29T13:18:04;23.50;99.90
8798;DHT22;4435;50.898;4.734;2022-07-29T13:20:31;23.50;99.90
8798;DHT22;4435;50.898;4.734;2022-07-29T13:22:58;23.50;99.90
8798;DHT22;4435;50.898;4.734;2022-07-29T13:25:27;23.50;99.90
8798;DHT22;4435;50.898;4.734;2022-07-29T13:27:54;23.40;99.90
8798;DHT22;4435;50.898;4.734;2022-07-29T13:30:20;23.40;99.90
8798;DHT22;4435;50.898;4.734;2022-07-29T13:32:47;23.50;99.90
8798;DHT22;4435;50.898;4.734;2022-07-29T13:35:13;23.60;99.90
8798;DHT22;4435;50.898;4.734;2022-07-29T13:37:39;23.80;99.90
8798;DHT22;4435;50.898;4.734;2022-07-29T13:40:07;24.00;99.90
8798;DHT22;4435;50.898;4.734;2022-07-29T13:42:33;24.00;99.90
8798;DHT22;4435;50.898;4.734;2022-07-29T13:44:59;24.00;99.90
8798;DHT22;4435;50.898;4.734;2022-07-29T13:47:25;24.00;99.90
8798;DHT22;4435;50.898;4.734;2022-07-29T13:49:51;23.90;99.90
8798;DHT22;4435;50.898;4.734;2022-07-29T13:52:19;23.90;99.90
8798;DHT22;4435;50.898;4.734;2022-07-29T13:54:45;24.00;99.90
8798;DHT22;4435;50.898;4.734;2022-07-29T13:57:11;24.00;99.90
8798;DHT22;4435;50.898;4.734;2022-07-29T13:59:39;24.00;99.90
8798;DHT22;4435;50.898;4.734;2022-07-29T14:02:05;23.90;99.90
8798;DHT22;4435;50.898;4.734;2022-07-29T14:04:31;23.90;99.90
8798;DHT22;4435;50.898;4.734;2022-07-29T14:06:57;23.90;99.90
8798;DHT22;4435;50.898;4.734;2022-07-29T14:09:22;23.90;99.90
8798;DHT22;4435;50.898;4.734;2022-07-29T14:11:48;23.90;99.90
8798;DHT22;4435;50.898;4.734;2022-07-29T14:14:16;23.90;99.90
8798;DHT22;4435;50.898;4.734;2022-07-29T14:16:42;23.90;99.90
8798;DHT22;4435;50.898;4.734;2022-07-29T14:19:08;23.80;99.90
8798;DHT22;4435;50.898;4.734;2022-07-29T14:21:33;23.90;99.90
8798;DHT22;4435;50.898;4.734;2022-07-29T14:24:00;23.90;99.90
8798;DHT22;4435;50.898;4.734;2022-07-29T14:26:26;24.00;99.90
8798;DHT22;4435;50.898;4.734;2022-07-29T14:28:51;24.10;99.90
8798;DHT22;4435;50.898;4.734;2022-07-29T14:31:17;24.10;99.90
8798;DHT22;4435;50.898;4.734;2022-07-29T14:33:43;24.10;99.90
8798;DHT22;4435;50.898;4.734;2022-07-29T14:36:09;24.10;99.90
8798;DHT22;4435;50.898;4.734;2022-07-29T14:38:35;24.10;99.90
8798;DHT22;4435;50.898;4.734;2022-07-29T14:41:03;24.10;99.90
8798;DHT22;4435;50.898;4.734;2022-07-29T14:43:28;24.00;99.90
8798;DHT22;4435;50.898;4.734;2022-07-29T14:45:54;23.90;99.90
8798;DHT22;4435;50.898;4.734;2022-07-29T14:48:20;23.90;99.90
8798;DHT22;4435;50.898;4.734;2022-07-29T14:50:46;23.80;99.90
8798;DHT22;4435;50.898;4.734;2022-07-29T14:53:11;23.80;99.90
8798;DHT22;4435;50.898;4.734;2022-07-29T14:55:39;23.80;99.90
8798;DHT22;4435;50.898;4.734;2022-07-29T14:58:05;23.70;99.90
8798;DHT22;4435;50.898;4.734;2022-07-29T15:00:30;23.70;99.90
8798;DHT22;4435;50.898;4.734;2022-07-29T15:02:59;23.70;99.90
8798;DHT22;4435;50.898;4.734;2022-07-29T15:05:26;23.70;99.90
8798;DHT22;4435;50.898;4.734;2022-07-29T15:07:52;23.60;99.90
8798;DHT22;4435;50.898;4.734;2022-07-29T15:10:18;23.60;99.90
8798;DHT22;4435;50.898;4.734;2022-07-29T15:12:43;23.60;99.90
8798;DHT22;4435;50.898;4.734;2022-07-29T15:15:09;23.60;99.90
8798;DHT22;4435;50.898;4.734;2022-07-29T15:17:35;23.60;99.90
8798;DHT22;4435;50.898;4.734;2022-07-29T15:20:01;23.70;99.90
8798;DHT22;4435;50.898;4.734;2022-07-29T15:22:27;23.80;99.90
8798;DHT22;4435;50.898;4.734;2022-07-29T15:24:52;23.80;99.90
8798;DHT22;4435;50.898;4.734;2022-07-29T15:27:18;23.90;99.90
8798;DHT22;4435;50.898;4.734;2022-07-29T15:29:44;23.90;99.90
8798;DHT22;4435;50.898;4.734;2022-07-29T15:32:10;24.00;99.90
8798;DHT22;4435;50.898;4.734;2022-07-29T15:34:36;24.20;99.90
8798;DHT22;4435;50.898;4.734;2022-07-29T15:37:04;24.30;99.90
8798;DHT22;4435;50.898;4.734;2022-07-29T15:39:30;24.30;99.90
8798;DHT22;4435;50.898;4.734;2022-07-29T15:41:56;24.40;99.90
8798;DHT22;4435;50.898;4.734;2022-07-29T15:44:21;24.40;99.90
8798;DHT22;4435;50.898;4.734;2022-07-29T15:46:48;24.30;99.90
8798;DHT22;4435;50.898;4.734;2022-07-29T15:49:39;24.30;99.90
8798;DHT22;4435;50.898;4.734;2022-07-29T15:52:09;24.40;99.90
8798;DHT22;4435;50.898;4.734;2022-07-29T15:54:37;24.40;99.90
8798;DHT22;4435;50.898;4.734;2022-07-29T15:57:04;24.50;99.90
8798;DHT22;4435;50.898;4.734;2022-07-29T15:59:30;24.50;99.90
8798;DHT22;4435;50.898;4.734;2022-07-29T16:01:56;24.60;99.90
8798;DHT22;4435;50.898;4.734;2022-07-29T16:04:22;24.60;99.90
8798;DHT22;4435;50.898;4.734;2022-07-29T16:06:48;24.60;99.90
8798;DHT22;4435;50.898;4.734;2022-07-29T16:09:15;24.50;99.90
8798;DHT22;4435;50.898;4.734;2022-07-29T16:11:41;24.50;99.90
8798;DHT22;4435;50.898;4.734;2022-07-29T16:14:07;24.40;99.90
8798;DHT22;4435;50.898;4.734;2022-07-29T16:16:35;24.40;99.90
8798;DHT22;4435;50.898;4.734;2022-07-29T16:19:01;24.40;99.90
8798;DHT22;4435;50.898;4.734;2022-07-29T16:21:27;24.40;99.90
8798;DHT22;4435;50.898;4.734;2022-07-29T16:23:53;24.40;99.90
8798;DHT22;4435;50.898;4.734;2022-07-29T16:26:19;24.40;99.90
8798;DHT22;4435;50.898;4.734;2022-07-29T16:28:44;24.50;99.90
8798;DHT22;4435;50.898;4.734;2022-07-29T16:31:10;24.50;99.90
8798;DHT22;4435;50.898;4.734;2022-07-29T16:33:36;24.50;99.90
8798;DHT22;4435;50.898;4.734;2022-07-29T16:36:02;24.60;99.90
8798;DHT22;4435;50.898;4.734;2022-07-29T16:38:27;24.60;99.90
8798;DHT22;4435;50.898;4.734;2022-07-29T16:40:53;24.70;99.90
8798;DHT22;4435;50.898;4.734;2022-07-29T16:43:19;24.70;99.90
8798;DHT22;4435;50.898;4.734;2022-07-29T16:45:44;24.70;99.90
8798;DHT22;4435;50.898;4.734;2022-07-29T16:48:11;24.70;99.90
8798;DHT22;4435;50.898;4.734;2022-07-29T16:50:37;24.70;99.90
8798;DHT22;4435;50.898;4.734;2022-07-29T16:53:04;24.80;99.90